sensor_id;sensor_type;location;lat;lon;timestamp;pressure;altitude;pressure_sealevel;temperature;humidity
46448;BME280;32145;50.390;30.778;2023-05-07T00:02:31;100915.81;;;5.82;48.94
46448;BME280;32145;50.390;30.778;2023-05-07T00:05:27;100919.72;;;5.79;48.92
46448;BME280;32145;50.390;30.778;2023-05-07T00:08:24;100914.31;;;5.79;48.74
46448;BME280;32145;50.390;30.778;2023-05-07T00:11:20;100924.09;;;5.80;49.10
46448;BME280;32145;50.390;30.778;2023-05-07T00:14:16;100915.19;;;5.80;49.18
46448;BME280;32145;50.390;30.778;2023-05-07T00:17:14;100921.41;;;5.80;48.82
46448;BME280;32145;50.390;30.778;2023-05-07T00:20:11;100917.03;;;5.79;49.07
46448;BME280;32145;50.390;30.778;2023-05-07T00:23:05;100911.63;;;5.79;48.81
46448;BME280;32145;50.390;30.778;2023-05-07T00:26:00;100908.13;;;5.79;48.78
46448;BME280;32145;50.390;30.778;2023-05-07T00:28:54;100904.59;;;5.78;48.83
46448;BME280;32145;50.390;30.778;2023-05-07T00:31:49;100908.66;;;5.74;49.26
46448;BME280;32145;50.390;30.778;2023-05-07T00:34:46;100900.75;;;5.73;48.85
46448;BME280;32145;50.390;30.778;2023-05-07T00:37:42;100893.53;;;5.73;48.77
46448;BME280;32145;50.390;30.778;2023-05-07T00:40:39;100901.78;;;5.72;49.04
46448;BME280;32145;50.390;30.778;2023-05-07T00:43:35;100910.00;;;5.70;48.71
46448;BME280;32145;50.390;30.778;2023-05-07T00:46:32;100908.50;;;5.67;48.90
46448;BME280;32145;50.390;30.778;2023-05-07T00:49:34;100903.97;;;5.68;48.71
46448;BME280;32145;50.390;30.778;2023-05-07T00:52:32;100909.03;;;5.63;49.11
46448;BME280;32145;50.390;30.778;2023-05-07T00:55:26;100913.78;;;5.61;48.71
46448;BME280;32145;50.390;30.778;2023-05-07T00:58:21;100910.41;;;5.59;48.58
46448;BME280;32145;50.390;30.778;2023-05-07T01:01:15;100915.13;;;5.57;48.37
46448;BME280;32145;50.390;30.778;2023-05-07T01:04:09;100921.50;;;5.55;48.65
46448;BME280;32145;50.390;30.778;2023-05-07T01:07:06;100917.81;;;5.57;48.96
46448;BME280;32145;50.390;30.778;2023-05-07T01:10:04;100923.69;;;5.60;48.58
46448;BME280;32145;50.390;30.778;2023-05-07T01:13:01;100929.91;;;5.61;48.87
46448;BME280;32145;50.390;30.778;2023-05-07T01:15:58;100929.91;;;5.61;48.79
46448;BME280;32145;50.390;30.778;2023-05-07T01:18:54;100926.19;;;5.62;48.98
46448;BME280;32145;50.390;30.778;2023-05-07T01:21:51;100933.25;;;5.63;48.97
46448;BME280;32145;50.390;30.778;2023-05-07T01:24:48;100938.44;;;5.64;48.85
46448;BME280;32145;50.390;30.778;2023-05-07T01:27:45;100929.53;;;5.64;49.06
46448;BME280;32145;50.390;30.778;2023-05-07T01:30:42;100935.28;;;5.61;48.71
46448;BME280;32145;50.390;30.778;2023-05-07T01:33:40;100936.44;;;5.58;48.73
46448;BME280;32145;50.390;30.778;2023-05-07T01:36:37;100927.06;;;5.54;48.46
46448;BME280;32145;50.390;30.778;2023-05-07T01:39:33;100935.28;;;5.52;48.71
46448;BME280;32145;50.390;30.778;2023-05-07T01:42:28;100938.34;;;5.49;48.70
46448;BME280;32145;50.390;30.778;2023-05-07T01:45:23;100930.97;;;5.43;49.05
46448;BME280;32145;50.390;30.778;2023-05-07T01:48:18;100940.22;;;5.40;48.92
46448;BME280;32145;50.390;30.778;2023-05-07T01:51:13;100931.00;;;5.35;49.20
46448;BME280;32145;50.390;30.778;2023-05-07T01:54:07;100934.69;;;5.34;49.53
46448;BME280;32145;50.390;30.778;2023-05-07T01:57:01;100936.53;;;5.33;49.21
46448;BME280;32145;50.390;30.778;2023-05-07T01:59:57;100944.94;;;5.30;49.47
46448;BME280;32145;50.390;30.778;2023-05-07T02:02:51;100944.47;;;5.26;49.39
46448;BME280;32145;50.390;30.778;2023-05-07T02:05:46;100947.16;;;5.26;49.68
46448;BME280;32145;50.390;30.778;2023-05-07T02:08:39;100947.16;;;5.26;49.61
46448;BME280;32145;50.390;30.778;2023-05-07T02:11:36;100954.19;;;5.27;49.74
46448;BME280;32145;50.390;30.778;2023-05-07T02:14:32;100958.56;;;5.28;49.71
46448;BME280;32145;50.390;30.778;2023-05-07T02:17:30;100959.41;;;5.29;49.64
46448;BME280;32145;50.390;30.778;2023-05-07T02:20:24;100964.63;;;5.31;49.47
46448;BME280;32145;50.390;30.778;2023-05-07T02:23:19;100961.06;;;5.30;49.64
46448;BME280;32145;50.390;30.778;2023-05-07T02:26:13;100956.56;;;5.31;49.51
46448;BME280;32145;50.390;30.778;2023-05-07T02:29:07;100961.94;;;5.31;49.55
46448;BME280;32145;50.390;30.778;2023-05-07T02:32:02;100963.59;;;5.32;49.54
46448;BME280;32145;50.390;30.778;2023-05-07T02:34:57;100971.50;;;5.33;49.74
46448;BME280;32145;50.390;30.778;2023-05-07T02:37:51;100965.09;;;5.34;49.63
46448;BME280;32145;50.390;30.778;2023-05-07T02:40:46;100965.09;;;5.34;49.46
46448;BME280;32145;50.390;30.778;2023-05-07T02:43:40;100971.16;;;5.36;49.57
46448;BME280;32145;50.390;30.778;2023-05-07T02:46:36;100968.31;;;5.38;49.68
46448;BME280;32145;50.390;30.778;2023-05-07T02:49:33;100981.59;;;5.39;49.40
46448;BME280;32145;50.390;30.778;2023-05-07T02:52:30;100984.91;;;5.41;49.63
46448;BME280;32145;50.390;30.778;2023-05-07T02:55:27;100987.44;;;5.43;49.45
46448;BME280;32145;50.390;30.778;2023-05-07T02:58:23;100983.41;;;5.47;49.48
46448;BME280;32145;50.390;30.778;2023-05-07T03:01:18;100983.06;;;5.50;49.44
46448;BME280;32145;50.390;30.778;2023-05-07T03:04:12;100982.88;;;5.52;49.42
46448;BME280;32145;50.390;30.778;2023-05-07T03:07:06;100983.06;;;5.50;49.40
46448;BME280;32145;50.390;30.778;2023-05-07T03:10:02;100994.66;;;5.51;49.89
46448;BME280;32145;50.390;30.778;2023-05-07T03:12:58;100990.97;;;5.52;49.87
46448;BME280;32145;50.390;30.778;2023-05-07T03:15:54;100999.50;;;5.55;49.72
46448;BME280;32145;50.390;30.778;2023-05-07T03:18:51;101003.22;;;5.54;49.81
46448;BME280;32145;50.390;30.778;2023-05-07T03:21:47;101005.56;;;5.58;49.57
46448;BME280;32145;50.390;30.778;2023-05-07T03:24:44;101008.91;;;5.60;49.81
46448;BME280;32145;50.390;30.778;2023-05-07T03:27:39;101010.25;;;5.64;49.53
46448;BME280;32145;50.390;30.778;2023-05-07T03:30:34;100997.94;;;5.70;49.58
46448;BME280;32145;50.390;30.778;2023-05-07T03:33:28;101016.63;;;5.71;49.65
46448;BME280;32145;50.390;30.778;2023-05-07T03:36:24;101023.66;;;5.72;49.97
46448;BME280;32145;50.390;30.778;2023-05-07T03:39:21;101026.34;;;5.72;49.63
46448;BME280;32145;50.390;30.778;2023-05-07T03:42:17;101025.38;;;5.73;49.76
46448;BME280;32145;50.390;30.778;2023-05-07T03:45:15;101028.38;;;5.78;49.67
46448;BME280;32145;50.390;30.778;2023-05-07T03:48:09;101023.13;;;5.85;49.86
46448;BME280;32145;50.390;30.778;2023-05-07T03:51:03;101024.97;;;5.93;49.60
46448;BME280;32145;50.390;30.778;2023-05-07T03:53:58;101028.44;;;6.02;49.45
46448;BME280;32145;50.390;30.778;2023-05-07T03:56:52;101026.28;;;6.05;49.05
46448;BME280;32145;50.390;30.778;2023-05-07T03:59:48;101034.31;;;6.14;49.34
46448;BME280;32145;50.390;30.778;2023-05-07T04:02:46;101037.16;;;6.21;48.83
46448;BME280;32145;50.390;30.778;2023-05-07T04:05:40;101037.78;;;6.31;48.61
46448;BME280;32145;50.390;30.778;2023-05-07T04:08:34;101031.66;;;6.37;48.96
46448;BME280;32145;50.390;30.778;2023-05-07T04:11:29;101043.25;;;6.46;48.35
46448;BME280;32145;50.390;30.778;2023-05-07T04:14:23;101044.38;;;6.52;48.45
46448;BME280;32145;50.390;30.778;2023-05-07T04:17:17;101046.56;;;6.56;48.30
46448;BME280;32145;50.390;30.778;2023-05-07T04:20:15;101034.41;;;6.61;48.60
46448;BME280;32145;50.390;30.778;2023-05-07T04:23:10;101028.00;;;6.62;48.68
46448;BME280;32145;50.390;30.778;2023-05-07T04:26:04;101030.88;;;6.60;48.52
46448;BME280;32145;50.390;30.778;2023-05-07T04:28:58;101022.25;;;6.65;48.53
46448;BME280;32145;50.390;30.778;2023-05-07T04:31:53;101026.09;;;6.70;48.61
46448;BME280;32145;50.390;30.778;2023-05-07T04:34:47;101030.28;;;6.73;48.52
46448;BME280;32145;50.390;30.778;2023-05-07T04:37:43;101025.53;;;6.75;48.92
46448;BME280;32145;50.390;30.778;2023-05-07T04:40:39;101036.97;;;6.77;48.52
46448;BME280;32145;50.390;30.778;2023-05-07T04:43:35;101023.78;;;6.82;48.28
46448;BME280;32145;50.390;30.778;2023-05-07T04:46:32;101029.69;;;6.86;48.27
46448;BME280;32145;50.390;30.778;2023-05-07T04:49:28;101023.91;;;6.89;48.28
46448;BME280;32145;50.390;30.778;2023-05-07T04:52:24;101019.47;;;6.96;48.06
46448;BME280;32145;50.390;30.778;2023-05-07T04:55:22;101012.34;;;7.04;48.42
46448;BME280;32145;50.390;30.778;2023-05-07T04:58:18;101011.44;;;7.12;47.60
46448;BME280;32145;50.390;30.778;2023-05-07T05:01:14;101012.75;;;7.16;47.73
46448;BME280;32145;50.390;30.778;2023-05-07T05:04:11;101011.19;;;7.21;47.23
46448;BME280;32145;50.390;30.778;2023-05-07T05:07:07;101003.91;;;7.22;46.84
46448;BME280;32145;50.390;30.778;2023-05-07T05:10:05;101007.91;;;7.26;46.96
46448;BME280;32145;50.390;30.778;2023-05-07T05:13:03;101007.00;;;7.34;47.36
46448;BME280;32145;50.390;30.778;2023-05-07T05:15:59;101001.72;;;7.41;46.80
46448;BME280;32145;50.390;30.778;2023-05-07T05:18:55;100994.56;;;7.48;46.33
46448;BME280;32145;50.390;30.778;2023-05-07T05:21:52;100989.25;;;7.55;46.70
46448;BME280;32145;50.390;30.778;2023-05-07T05:24:48;100985.59;;;7.63;46.29
46448;BME280;32145;50.390;30.778;2023-05-07T05:27:45;100992.78;;;7.70;46.09
46448;BME280;32145;50.390;30.778;2023-05-07T05:30:40;100990.16;;;7.77;45.60
46448;BME280;32145;50.390;30.778;2023-05-07T05:33:35;100998.16;;;7.85;45.38
46448;BME280;32145;50.390;30.778;2023-05-07T05:36:29;100996.03;;;7.96;45.15
46448;BME280;32145;50.390;30.778;2023-05-07T05:39:23;100993.59;;;8.01;44.81
46448;BME280;32145;50.390;30.778;2023-05-07T05:42:18;100989.28;;;8.07;44.78
46448;BME280;32145;50.390;30.778;2023-05-07T05:45:12;100991.81;;;8.08;44.96
46448;BME280;32145;50.390;30.778;2023-05-07T05:48:10;100992.44;;;8.10;44.48
46448;BME280;32145;50.390;30.778;2023-05-07T05:51:06;100991.44;;;8.11;44.68
46448;BME280;32145;50.390;30.778;2023-05-07T05:54:02;100990.03;;;8.16;44.08
46448;BME280;32145;50.390;30.778;2023-05-07T05:56:58;100992.63;;;8.24;44.42
46448;BME280;32145;50.390;30.778;2023-05-07T05:59:55;100985.75;;;8.43;44.05
46448;BME280;32145;50.390;30.778;2023-05-07T06:02:49;100980.72;;;8.55;43.80
46448;BME280;32145;50.390;30.778;2023-05-07T06:05:45;100976.69;;;8.73;43.09
46448;BME280;32145;50.390;30.778;2023-05-07T06:08:39;100988.28;;;8.88;42.68
46448;BME280;32145;50.390;30.778;2023-05-07T06:11:34;100985.44;;;8.97;42.92
46448;BME280;32145;50.390;30.778;2023-05-07T06:14:30;100989.03;;;9.04;42.89
46448;BME280;32145;50.390;30.778;2023-05-07T06:17:27;100986.84;;;9.14;42.68
46448;BME280;32145;50.390;30.778;2023-05-07T06:20:23;100984.19;;;9.21;42.28
46448;BME280;32145;50.390;30.778;2023-05-07T06:23:20;100990.00;;;9.25;41.64
46448;BME280;32145;50.390;30.778;2023-05-07T06:26:17;100985.25;;;9.27;41.74
46448;BME280;32145;50.390;30.778;2023-05-07T06:29:13;100988.00;;;9.34;42.43
46448;BME280;32145;50.390;30.778;2023-05-07T06:32:12;100988.22;;;9.39;41.62
46448;BME280;32145;50.390;30.778;2023-05-07T06:35:09;100996.66;;;9.51;41.43
46448;BME280;32145;50.390;30.778;2023-05-07T06:38:05;100993.13;;;9.57;41.00
46448;BME280;32145;50.390;30.778;2023-05-07T06:41:03;100996.72;;;9.64;40.24
46448;BME280;32145;50.390;30.778;2023-05-07T06:43:59;100999.66;;;9.70;40.75
46448;BME280;32145;50.390;30.778;2023-05-07T06:46:56;101000.53;;;9.77;40.12
46448;BME280;32145;50.390;30.778;2023-05-07T06:49:50;101007.19;;;9.74;40.70
46448;BME280;32145;50.390;30.778;2023-05-07T06:52:45;101011.63;;;9.82;40.24
46448;BME280;32145;50.390;30.778;2023-05-07T06:55:39;101008.94;;;9.89;39.53
46448;BME280;32145;50.390;30.778;2023-05-07T06:58:35;101008.56;;;9.99;39.35
46448;BME280;32145;50.390;30.778;2023-05-07T07:01:29;101004.66;;;10.15;39.42
46448;BME280;32145;50.390;30.778;2023-05-07T07:04:23;101001.53;;;10.18;38.52
46448;BME280;32145;50.390;30.778;2023-05-07T07:07:19;101009.44;;;10.13;38.90
46448;BME280;32145;50.390;30.778;2023-05-07T07:10:16;101007.34;;;10.15;38.30
46448;BME280;32145;50.390;30.778;2023-05-07T07:13:10;101010.94;;;10.29;38.64
46448;BME280;32145;50.390;30.778;2023-05-07T07:16:06;101006.59;;;10.41;38.07
46448;BME280;32145;50.390;30.778;2023-05-07T07:19:02;100999.31;;;10.42;37.17
46448;BME280;32145;50.390;30.778;2023-05-07T07:21:59;100998.25;;;10.36;37.82
46448;BME280;32145;50.390;30.778;2023-05-07T07:24:55;100992.41;;;10.32;38.84
46448;BME280;32145;50.390;30.778;2023-05-07T07:27:51;100991.38;;;10.40;37.57
46448;BME280;32145;50.390;30.778;2023-05-07T07:30:48;100997.91;;;10.53;36.66
46448;BME280;32145;50.390;30.778;2023-05-07T07:33:46;100996.69;;;10.62;36.03
46448;BME280;32145;50.390;30.778;2023-05-07T07:36:41;100997.53;;;10.76;36.00
46448;BME280;32145;50.390;30.778;2023-05-07T07:39:38;100996.69;;;10.82;36.64
46448;BME280;32145;50.390;30.778;2023-05-07T07:42:34;100996.28;;;10.79;35.31
46448;BME280;32145;50.390;30.778;2023-05-07T07:45:30;100989.19;;;10.78;34.81
46448;BME280;32145;50.390;30.778;2023-05-07T07:48:27;100997.94;;;10.87;35.59
46448;BME280;32145;50.390;30.778;2023-05-07T07:51:24;101000.44;;;10.88;34.58
46448;BME280;32145;50.390;30.778;2023-05-07T07:54:21;101002.97;;;10.83;36.65
46448;BME280;32145;50.390;30.778;2023-05-07T07:57:17;100995.84;;;10.75;35.71
46448;BME280;32145;50.390;30.778;2023-05-07T08:00:12;101007.13;;;10.79;35.41
46448;BME280;32145;50.390;30.778;2023-05-07T08:03:09;101000.44;;;10.88;35.17
46448;BME280;32145;50.390;30.778;2023-05-07T08:06:04;101001.72;;;10.92;34.82
46448;BME280;32145;50.390;30.778;2023-05-07T08:08:59;101003.38;;;11.07;35.22
46448;BME280;32145;50.390;30.778;2023-05-07T08:11:53;101003.16;;;11.22;35.64
46448;BME280;32145;50.390;30.778;2023-05-07T08:14:48;101003.19;;;11.15;36.62
46448;BME280;32145;50.390;30.778;2023-05-07T08:17:42;101006.31;;;11.12;35.47
46448;BME280;32145;50.390;30.778;2023-05-07T08:20:37;100993.16;;;11.09;34.45
46448;BME280;32145;50.390;30.778;2023-05-07T08:23:31;101001.09;;;11.17;36.00
46448;BME280;32145;50.390;30.778;2023-05-07T08:26:27;100995.44;;;11.26;34.93
46448;BME280;32145;50.390;30.778;2023-05-07T08:29:21;100988.34;;;11.38;34.35
46448;BME280;32145;50.390;30.778;2023-05-07T08:32:15;100994.59;;;11.45;34.16
46448;BME280;32145;50.390;30.778;2023-05-07T08:35:09;100988.72;;;11.48;35.10
46448;BME280;32145;50.390;30.778;2023-05-07T08:38:04;100995.41;;;11.46;34.95
46448;BME280;32145;50.390;30.778;2023-05-07T08:40:58;100988.31;;;11.45;34.08
46448;BME280;32145;50.390;30.778;2023-05-07T08:43:58;100989.16;;;11.32;35.29
46448;BME280;32145;50.390;30.778;2023-05-07T08:46:53;100995.44;;;11.26;34.61
46448;BME280;32145;50.390;30.778;2023-05-07T08:49:49;100986.22;;;11.40;34.27
46448;BME280;32145;50.390;30.778;2023-05-07T08:52:43;100981.44;;;11.36;33.69
46448;BME280;32145;50.390;30.778;2023-05-07T08:55:38;100991.06;;;11.31;32.31
46448;BME280;32145;50.390;30.778;2023-05-07T08:58:32;100985.38;;;11.46;32.98
46448;BME280;32145;50.390;30.778;2023-05-07T09:01:28;100994.53;;;11.59;34.51
46448;BME280;32145;50.390;30.778;2023-05-07T09:04:22;100997.50;;;11.44;34.82
46448;BME280;32145;50.390;30.778;2023-05-07T09:07:17;100991.41;;;11.48;32.61
46448;BME280;32145;50.390;30.778;2023-05-07T09:10:11;100991.63;;;11.60;32.43
46448;BME280;32145;50.390;30.778;2023-05-07T09:13:06;100995.75;;;11.70;34.03
46448;BME280;32145;50.390;30.778;2023-05-07T09:16:12;101001.22;;;11.63;32.63
46448;BME280;32145;50.390;30.778;2023-05-07T09:19:10;100991.41;;;11.62;32.57
46448;BME280;32145;50.390;30.778;2023-05-07T09:22:06;100999.72;;;11.81;32.16
46448;BME280;32145;50.390;30.778;2023-05-07T09:25:04;101003.44;;;11.93;32.14
46448;BME280;32145;50.390;30.778;2023-05-07T09:28:01;101002.78;;;12.05;31.97
46448;BME280;32145;50.390;30.778;2023-05-07T09:30:58;100994.81;;;12.10;31.80
46448;BME280;32145;50.390;30.778;2023-05-07T09:33:52;100993.59;;;12.06;31.60
46448;BME280;32145;50.390;30.778;2023-05-07T09:36:48;100996.31;;;12.06;31.19
46448;BME280;32145;50.390;30.778;2023-05-07T09:39:43;100998.09;;;12.26;31.81
46448;BME280;32145;50.390;30.778;2023-05-07T09:42:38;101000.13;;;12.37;31.78
46448;BME280;32145;50.390;30.778;2023-05-07T09:45:32;100997.22;;;12.32;31.98
46448;BME280;32145;50.390;30.778;2023-05-07T09:48:27;101002.09;;;12.16;31.42
46448;BME280;32145;50.390;30.778;2023-05-07T09:51:28;101002.75;;;12.11;32.19
46448;BME280;32145;50.390;30.778;2023-05-07T09:54:26;101002.97;;;12.03;32.51
46448;BME280;32145;50.390;30.778;2023-05-07T09:57:23;101004.25;;;12.07;32.41
46448;BME280;32145;50.390;30.778;2023-05-07T10:00:21;100996.91;;;12.08;32.14
46448;BME280;32145;50.390;30.778;2023-05-07T10:03:18;100986.66;;;12.10;32.25
46448;BME280;32145;50.390;30.778;2023-05-07T10:06:15;100986.88;;;12.02;33.34
46448;BME280;32145;50.390;30.778;2023-05-07T10:09:13;100978.13;;;11.93;32.65
46448;BME280;32145;50.390;30.778;2023-05-07T10:12:12;100976.72;;;11.83;32.37
46448;BME280;32145;50.390;30.778;2023-05-07T10:15:09;100975.66;;;11.84;32.03
46448;BME280;32145;50.390;30.778;2023-05-07T10:18:06;100967.06;;;11.94;32.04
46448;BME280;32145;50.390;30.778;2023-05-07T10:21:06;100968.91;;;12.01;32.25
46448;BME280;32145;50.390;30.778;2023-05-07T10:24:04;100972.28;;;11.96;32.13
46448;BME280;32145;50.390;30.778;2023-05-07T10:27:00;100974.16;;;11.95;33.06
46448;BME280;32145;50.390;30.778;2023-05-07T10:30:07;100969.94;;;11.99;31.98
46448;BME280;32145;50.390;30.778;2023-05-07T10:33:09;100958.25;;;12.06;32.46
46448;BME280;32145;50.390;30.778;2023-05-07T10:36:05;100951.69;;;12.20;31.82
46448;BME280;32145;50.390;30.778;2023-05-07T10:39:00;100953.69;;;12.39;32.86
46448;BME280;32145;50.390;30.778;2023-05-07T10:41:54;100957.84;;;12.41;31.98
46448;BME280;32145;50.390;30.778;2023-05-07T10:44:49;100958.66;;;12.48;35.25
46448;BME280;32145;50.390;30.778;2023-05-07T10:48:06;100955.47;;;12.52;33.26
46448;BME280;32145;50.390;30.778;2023-05-07T10:51:18;100942.06;;;12.57;32.42
46448;BME280;32145;50.390;30.778;2023-05-07T10:54:22;100942.38;;;12.67;31.28
46448;BME280;32145;50.390;30.778;2023-05-07T10:57:35;100938.66;;;12.87;32.73
46448;BME280;32145;50.390;30.778;2023-05-07T11:00:42;100935.34;;;13.04;31.32
46448;BME280;32145;50.390;30.778;2023-05-07T11:04:14;100940.84;;;13.22;31.83
46448;BME280;32145;50.390;30.778;2023-05-07T11:07:32;100938.34;;;13.21;31.62
46448;BME280;32145;50.390;30.778;2023-05-07T11:10:48;100939.38;;;13.01;30.18
46448;BME280;32145;50.390;30.778;2023-05-07T11:13:45;100929.16;;;12.96;30.82
46448;BME280;32145;50.390;30.778;2023-05-07T11:16:43;100941.44;;;13.06;30.49
46448;BME280;32145;50.390;30.778;2023-05-07T11:19:51;100925.31;;;13.04;29.46
46448;BME280;32145;50.390;30.778;2023-05-07T11:22:46;100924.75;;;12.95;29.95
46448;BME280;32145;50.390;30.778;2023-05-07T11:25:40;100925.28;;;12.85;31.08
46448;BME280;32145;50.390;30.778;2023-05-07T11:28:37;100921.97;;;12.83;30.77
46448;BME280;32145;50.390;30.778;2023-05-07T11:31:32;100924.28;;;12.80;30.61
46448;BME280;32145;50.390;30.778;2023-05-07T11:34:26;100931.06;;;12.70;29.94
46448;BME280;32145;50.390;30.778;2023-05-07T11:37:23;100931.34;;;12.62;29.28
46448;BME280;32145;50.390;30.778;2023-05-07T11:40:17;100930.59;;;12.48;30.60
46448;BME280;32145;50.390;30.778;2023-05-07T11:43:13;100928.81;;;12.35;30.51
46448;BME280;32145;50.390;30.778;2023-05-07T11:46:10;100935.72;;;12.31;30.24
46448;BME280;32145;50.390;30.778;2023-05-07T11:49:05;100936.16;;;12.34;30.74
46448;BME280;32145;50.390;30.778;2023-05-07T11:52:00;100934.41;;;12.40;31.97
46448;BME280;32145;50.390;30.778;2023-05-07T11:54:57;100938.59;;;12.43;31.49
46448;BME280;32145;50.390;30.778;2023-05-07T11:57:51;100928.97;;;12.40;30.20
46448;BME280;32145;50.390;30.778;2023-05-07T12:00:48;100921.44;;;12.42;29.52
46448;BME280;32145;50.390;30.778;2023-05-07T12:03:43;100925.22;;;12.41;30.96
46448;BME280;32145;50.390;30.778;2023-05-07T12:06:38;100928.59;;;12.36;30.38
46448;BME280;32145;50.390;30.778;2023-05-07T12:09:33;100930.28;;;12.31;30.79
46448;BME280;32145;50.390;30.778;2023-05-07T12:12:28;100929.06;;;12.27;31.31
46448;BME280;32145;50.390;30.778;2023-05-07T12:15:23;100915.47;;;12.27;30.10
46448;BME280;32145;50.390;30.778;2023-05-07T12:18:17;100916.53;;;12.26;30.29
46448;BME280;32145;50.390;30.778;2023-05-07T12:21:12;100916.13;;;12.22;30.93
46448;BME280;32145;50.390;30.778;2023-05-07T12:24:08;100913.63;;;12.20;31.26
46448;BME280;32145;50.390;30.778;2023-05-07T12:27:02;100902.75;;;12.20;30.43
46448;BME280;32145;50.390;30.778;2023-05-07T12:29:58;100902.94;;;12.26;30.56
46448;BME280;32145;50.390;30.778;2023-05-07T12:32:52;100907.03;;;12.35;30.99
46448;BME280;32145;50.390;30.778;2023-05-07T12:35:47;100902.19;;;12.44;31.59
46448;BME280;32145;50.390;30.778;2023-05-07T12:38:41;100905.50;;;12.46;30.31
46448;BME280;32145;50.390;30.778;2023-05-07T12:41:36;100900.91;;;12.46;28.96
46448;BME280;32145;50.390;30.778;2023-05-07T12:44:45;100907.44;;;12.64;29.38
46448;BME280;32145;50.390;30.778;2023-05-07T12:47:43;100906.84;;;12.62;29.30
46448;BME280;32145;50.390;30.778;2023-05-07T12:50:37;100904.84;;;12.50;30.76
46448;BME280;32145;50.390;30.778;2023-05-07T12:53:32;100902.13;;;12.50;30.22
46448;BME280;32145;50.390;30.778;2023-05-07T12:56:26;100896.25;;;12.54;30.66
46448;BME280;32145;50.390;30.778;2023-05-07T12:59:30;100892.69;;;12.53;31.35
46448;BME280;32145;50.390;30.778;2023-05-07T13:02:32;100894.88;;;12.44;30.02
46448;BME280;32145;50.390;30.778;2023-05-07T13:05:28;100892.63;;;12.34;31.19
46448;BME280;32145;50.390;30.778;2023-05-07T13:08:26;100892.41;;;12.36;30.49
46448;BME280;32145;50.390;30.778;2023-05-07T13:11:21;100884.88;;;12.38;30.23
46448;BME280;32145;50.390;30.778;2023-05-07T13:14:15;100884.22;;;12.43;30.65
46448;BME280;32145;50.390;30.778;2023-05-07T13:17:09;100889.06;;;12.34;28.85
46448;BME280;32145;50.390;30.778;2023-05-07T13:20:04;100894.09;;;12.30;30.32
46448;BME280;32145;50.390;30.778;2023-05-07T13:23:00;100892.66;;;12.28;31.22
46448;BME280;32145;50.390;30.778;2023-05-07T13:25:55;100892.66;;;12.28;30.38
46448;BME280;32145;50.390;30.778;2023-05-07T13:28:49;100888.06;;;12.28;29.87
46448;BME280;32145;50.390;30.778;2023-05-07T13:31:45;100888.28;;;12.27;29.15
46448;BME280;32145;50.390;30.778;2023-05-07T13:34:42;100883.28;;;12.23;28.66
46448;BME280;32145;50.390;30.778;2023-05-07T13:37:38;100885.63;;;12.20;29.13
46448;BME280;32145;50.390;30.778;2023-05-07T13:40:36;100892.75;;;12.14;28.54
46448;BME280;32145;50.390;30.778;2023-05-07T13:43:32;100889.88;;;12.09;28.22
46448;BME280;32145;50.390;30.778;2023-05-07T13:46:26;100889.88;;;12.09;28.83
46448;BME280;32145;50.390;30.778;2023-05-07T13:49:20;100888.19;;;12.08;29.44
46448;BME280;32145;50.390;30.778;2023-05-07T13:52:15;100895.31;;;12.09;29.71
46448;BME280;32145;50.390;30.778;2023-05-07T13:55:10;100886.09;;;12.10;29.65
46448;BME280;32145;50.390;30.778;2023-05-07T13:58:07;100898.25;;;12.07;29.69
46448;BME280;32145;50.390;30.778;2023-05-07T14:01:04;100890.94;;;12.01;29.42
46448;BME280;32145;50.390;30.778;2023-05-07T14:04:00;100885.69;;;11.99;29.43
46448;BME280;32145;50.390;30.778;2023-05-07T14:06:56;100884.47;;;11.95;29.68
46448;BME280;32145;50.390;30.778;2023-05-07T14:09:53;100881.16;;;11.93;29.68
46448;BME280;32145;50.390;30.778;2023-05-07T14:12:48;100875.53;;;11.88;29.31
46448;BME280;32145;50.390;30.778;2023-05-07T14:15:43;100869.50;;;11.86;29.31
46448;BME280;32145;50.390;30.778;2023-05-07T14:18:37;100875.34;;;11.83;30.61
46448;BME280;32145;50.390;30.778;2023-05-07T14:21:32;100866.59;;;11.81;29.81
46448;BME280;32145;50.390;30.778;2023-05-07T14:24:26;100861.16;;;11.81;32.42
46448;BME280;32145;50.390;30.778;2023-05-07T14:27:20;100860.97;;;11.76;30.07
46448;BME280;32145;50.390;30.778;2023-05-07T14:30:15;100864.75;;;11.75;30.03
46448;BME280;32145;50.390;30.778;2023-05-07T14:33:10;100864.94;;;11.73;28.96
46448;BME280;32145;50.390;30.778;2023-05-07T14:36:05;100869.53;;;11.72;29.03
46448;BME280;32145;50.390;30.778;2023-05-07T14:38:59;100871.22;;;11.73;28.88
46448;BME280;32145;50.390;30.778;2023-05-07T14:41:54;100864.94;;;11.73;29.90
46448;BME280;32145;50.390;30.778;2023-05-07T14:44:48;100872.88;;;11.75;29.51
46448;BME280;32145;50.390;30.778;2023-05-07T14:47:42;100869.13;;;11.76;29.78
46448;BME280;32145;50.390;30.778;2023-05-07T14:50:38;100870.38;;;11.73;29.24
46448;BME280;32145;50.390;30.778;2023-05-07T14:53:32;100879.16;;;11.68;30.46
46448;BME280;32145;50.390;30.778;2023-05-07T14:56:27;100876.28;;;11.63;31.36
46448;BME280;32145;50.390;30.778;2023-05-07T14:59:21;100876.72;;;11.60;30.93
46448;BME280;32145;50.390;30.778;2023-05-07T15:02:15;100877.16;;;11.57;30.88
46448;BME280;32145;50.390;30.778;2023-05-07T15:05:10;100868.38;;;11.55;32.15
46448;BME280;32145;50.390;30.778;2023-05-07T15:08:05;100869.88;;;11.51;33.10
46448;BME280;32145;50.390;30.778;2023-05-07T15:10:59;100876.78;;;11.46;31.79
46448;BME280;32145;50.390;30.778;2023-05-07T15:13:54;100880.97;;;11.42;31.29
46448;BME280;32145;50.390;30.778;2023-05-07T15:16:48;100879.31;;;11.41;31.72